createdAt,value
2022-08-16T00:02:22.747Z,19.77
2022-08-16T00:04:51.104Z,19.72
2022-08-16T00:07:18.120Z,19.71
2022-08-16T00:09:45.210Z,19.55
2022-08-16T00:12:12.440Z,19.53
2022-08-16T00:14:45.275Z,19.38
2022-08-16T00:17:18.297Z,19.50
2022-08-16T00:19:45.271Z,19.49
2022-08-16T00:22:13.751Z,19.51
2022-08-16T00:24:44.846Z,19.48
2022-08-16T00:27:13.435Z,19.60
2022-08-16T00:29:41.203Z,19.38
2022-08-16T00:32:08.576Z,19.50
2022-08-16T00:34:44.526Z,19.54
2022-08-16T00:37:21.059Z,19.51
2022-08-16T00:39:57.671Z,19.51
2022-08-16T00:42:30.345Z,19.54
2022-08-16T00:45:08.011Z,19.47
2022-08-16T00:47:39.266Z,19.27
2022-08-16T00:50:11.446Z,19.30
2022-08-16T00:52:50.657Z,19.44
2022-08-16T00:55:19.776Z,19.50
2022-08-16T00:58:00.227Z,19.38
2022-08-16T01:00:30.486Z,19.41
2022-08-16T01:02:59.791Z,19.43
2022-08-16T01:05:27.384Z,19.30
2022-08-16T01:07:54.190Z,19.23
2022-08-16T01:10:31.489Z,19.20
2022-08-16T01:13:29.114Z,19.15
2022-08-16T01:16:20.015Z,19.14
2022-08-16T01:19:16.795Z,18.97
2022-08-16T01:22:46.794Z,18.88
2022-08-16T01:24:55.630Z,18.76
2022-08-16T01:27:31.132Z,18.75
2022-08-16T01:30:19.697Z,18.73
2022-08-16T01:33:01.413Z,18.79
2022-08-16T01:35:35.069Z,18.80
2022-08-16T01:38:19.721Z,18.69
2022-08-16T01:40:47.142Z,18.73
2022-08-16T01:43:13.937Z,18.70
2022-08-16T01:45:43.466Z,18.70
2022-08-16T01:48:19.748Z,18.51
2022-08-16T01:51:16.237Z,18.56
2022-08-16T01:53:40.721Z,18.52
2022-08-16T01:56:08.657Z,18.50
2022-08-16T01:58:50.875Z,18.47
2022-08-16T02:01:18.115Z,18.53
2022-08-16T02:03:44.664Z,18.44
2022-08-16T02:06:33.932Z,18.34
2022-08-16T02:09:02.567Z,18.37
2022-08-16T02:11:47.713Z,18.35
2022-08-16T02:14:18.092Z,18.40
2022-08-16T02:16:45.118Z,18.32
2022-08-16T02:19:16.432Z,18.21
2022-08-16T02:22:07.623Z,18.23
2022-08-16T02:24:40.807Z,18.21
2022-08-16T02:27:08.405Z,18.22
2022-08-16T02:29:34.868Z,18.24
2022-08-16T02:32:03.616Z,18.17
2022-08-16T02:34:32.877Z,18.08
2022-08-16T02:37:01.458Z,18.01
2022-08-16T02:39:27.996Z,18.07
2022-08-16T02:41:56.827Z,18.09
2022-08-16T02:44:27.069Z,18.07
2022-08-16T02:46:55.148Z,18.05
2022-08-16T02:49:32.285Z,17.98
2022-08-16T02:52:11.314Z,18.04
2022-08-16T02:54:55.392Z,18.07
2022-08-16T02:57:23.431Z,17.98
2022-08-16T02:59:50.355Z,17.96
2022-08-16T03:02:17.829Z,17.97
2022-08-16T03:04:52.087Z,18.03
2022-08-16T03:07:27.749Z,18.00
2022-08-16T03:09:54.432Z,17.94
2022-08-16T03:12:21.074Z,17.91
2022-08-16T03:14:57.062Z,17.89
2022-08-16T03:17:23.533Z,17.87
2022-08-16T03:20:00.191Z,17.87
2022-08-16T03:22:29.643Z,17.78
2022-08-16T03:25:01.149Z,17.77
2022-08-16T03:27:32.410Z,17.68
2022-08-16T03:30:25.725Z,17.71
2022-08-16T03:32:52.300Z,17.67
2022-08-16T03:35:32.626Z,17.65
2022-08-16T03:38:04.043Z,17.67
2022-08-16T03:40:33.841Z,17.75
2022-08-16T03:43:19.847Z,17.68
2022-08-16T03:45:48.790Z,17.72
2022-08-16T03:48:19.832Z,17.68
2022-08-16T03:50:59.788Z,17.69
2022-08-16T03:53:27.280Z,17.63
2022-08-16T03:56:05.193Z,17.62
2022-08-16T03:58:33.801Z,17.66
2022-08-16T04:01:00.284Z,17.69
2022-08-16T04:03:26.909Z,17.84
2022-08-16T04:05:56.797Z,17.86
2022-08-16T04:08:24.633Z,17.81
2022-08-16T04:10:55.030Z,17.75
2022-08-16T04:14:00.709Z,17.78
2022-08-16T04:16:09.611Z,17.79
2022-08-16T04:18:54.423Z,17.78
2022-08-16T04:21:29.882Z,17.68
2022-08-16T04:23:56.415Z,17.73
2022-08-16T04:26:22.847Z,17.74
2022-08-16T04:28:53.343Z,17.81
2022-08-16T04:31:23.625Z,17.86
2022-08-16T04:33:51.103Z,17.98
2022-08-16T04:36:19.899Z,18.02
2022-08-16T04:38:47.371Z,17.87
2022-08-16T04:41:17.264Z,17.90
2022-08-16T04:43:44.703Z,17.92
2022-08-16T04:47:01.186Z,17.94
2022-08-16T04:49:01.591Z,17.98
2022-08-16T04:51:28.260Z,17.99
2022-08-16T04:54:02.710Z,17.93
2022-08-16T04:56:30.910Z,17.96
2022-08-16T04:58:58.073Z,17.87
2022-08-16T05:01:24.671Z,17.82
2022-08-16T05:04:19.612Z,17.97
2022-08-16T05:06:46.872Z,17.83
2022-08-16T05:09:14.338Z,17.70
2022-08-16T05:11:42.973Z,17.71
2022-08-16T05:14:09.835Z,17.77
2022-08-16T05:16:36.436Z,17.72
2022-08-16T05:19:04.873Z,17.67
2022-08-16T05:21:35.900Z,17.74
2022-08-16T05:24:07.083Z,17.84
2022-08-16T05:26:37.439Z,17.82
2022-08-16T05:29:07.493Z,17.65
2022-08-16T05:31:37.951Z,17.81
2022-08-16T05:34:19.352Z,17.82
2022-08-16T05:36:46.417Z,17.96
2022-08-16T05:39:12.853Z,17.98
2022-08-16T05:41:45.464Z,18.13
2022-08-16T05:44:24.157Z,18.10
2022-08-16T05:46:57.079Z,18.09
2022-08-16T05:49:26.157Z,18.17
2022-08-16T05:52:11.536Z,18.44
2022-08-16T05:54:47.233Z,18.60
2022-08-16T05:57:16.985Z,18.79
2022-08-16T05:59:43.650Z,19.19
2022-08-16T06:02:10.146Z,19.35
2022-08-16T06:04:37.697Z,19.69
2022-08-16T06:07:08.936Z,19.88
2022-08-16T06:09:43.405Z,20.11
2022-08-16T06:12:27.166Z,20.28
2022-08-16T06:14:58.733Z,20.41
2022-08-16T06:17:42.421Z,20.75
2022-08-16T06:20:24.416Z,21.16
2022-08-16T06:22:58.684Z,21.37
2022-08-16T06:25:36.787Z,21.67
2022-08-16T06:28:16.843Z,21.76
2022-08-16T06:30:57.904Z,22.13
2022-08-16T06:33:24.735Z,22.19
2022-08-16T06:35:55.015Z,22.60
2022-08-16T06:38:33.830Z,22.39
2022-08-16T06:41:06.283Z,22.44
2022-08-16T06:43:40.341Z,22.73
2022-08-16T06:46:10.137Z,22.43
2022-08-16T06:48:37.822Z,22.51
2022-08-16T06:51:09.705Z,22.41
2022-08-16T06:53:36.724Z,22.71
2022-08-16T06:56:14.857Z,23.12
2022-08-16T06:58:50.495Z,23.49
2022-08-16T07:01:20.122Z,23.35
2022-08-16T07:03:55.637Z,23.91
2022-08-16T07:06:26.492Z,24.13
2022-08-16T07:08:54.055Z,24.66
2022-08-16T07:11:20.849Z,25.00
2022-08-16T07:14:26.318Z,25.34
2022-08-16T07:17:00.021Z,25.65
2022-08-16T07:19:33.699Z,26.34
2022-08-16T07:22:38.047Z,26.73
2022-08-16T07:25:06.191Z,26.98
2022-08-16T07:27:33.725Z,27.23
2022-08-16T07:30:00.928Z,27.75
2022-08-16T07:32:29.623Z,28.12
2022-08-16T07:34:58.040Z,28.76
2022-08-16T07:37:24.718Z,28.84
2022-08-16T07:39:52.004Z,29.10
2022-08-16T07:42:28.354Z,29.48
2022-08-16T07:45:03.365Z,30.12
2022-08-16T07:47:34.253Z,30.69
2022-08-16T07:50:05.475Z,30.01
2022-08-16T07:52:34.205Z,30.40
2022-08-16T07:55:00.659Z,30.57
2022-08-16T07:57:28.171Z,31.34
2022-08-16T07:59:57.375Z,31.67
2022-08-16T08:02:27.343Z,31.83
2022-08-16T08:04:55.615Z,32.47
2022-08-16T08:07:22.561Z,32.47
2022-08-16T08:09:54.017Z,32.13
2022-08-16T08:12:32.005Z,32.12
2022-08-16T08:15:05.950Z,33.25
2022-08-16T08:17:42.580Z,33.50
2022-08-16T08:20:20.065Z,34.20
2022-08-16T08:23:00.811Z,34.19
2022-08-16T08:25:53.854Z,34.64
2022-08-16T08:28:17.434Z,35.14
2022-08-16T08:30:51.803Z,35.61
2022-08-16T08:33:27.766Z,36.34
2022-08-16T08:35:56.976Z,35.55
2022-08-16T08:38:44.984Z,35.18
2022-08-16T08:41:13.359Z,35.96
2022-08-16T08:43:41.494Z,34.92
2022-08-16T08:46:17.953Z,35.66
2022-08-16T08:48:59.720Z,35.95
2022-08-16T08:51:35.605Z,36.94
2022-08-16T08:54:06.564Z,37.56
2022-08-16T08:56:34.992Z,37.45
2022-08-16T08:59:06.099Z,38.17
2022-08-16T09:01:43.023Z,37.97
2022-08-16T09:04:23.545Z,36.53
2022-08-16T09:06:50.461Z,37.84
2022-08-16T09:09:17.522Z,38.40
2022-08-16T09:11:49.558Z,38.40
2022-08-16T09:14:23.886Z,38.68
2022-08-16T09:17:01.295Z,38.56
2022-08-16T09:19:34.651Z,40.36
2022-08-16T09:22:01.743Z,39.51
2022-08-16T09:24:51.802Z,40.32
2022-08-16T09:27:14.833Z,40.10
2022-08-16T09:29:44.878Z,41.01
2022-08-16T09:32:12.833Z,40.10
2022-08-16T09:34:58.365Z,39.13
2022-08-16T09:37:29.543Z,39.23
2022-08-16T09:39:59.416Z,40.43
2022-08-16T09:42:28.847Z,40.35
2022-08-16T09:45:12.114Z,41.19
2022-08-16T09:47:57.425Z,41.51
2022-08-16T09:50:36.967Z,40.55
2022-08-16T09:53:17.303Z,40.57
2022-08-16T09:55:49.313Z,41.50
2022-08-16T09:58:40.660Z,42.44
2022-08-16T10:01:06.338Z,39.58
2022-08-16T10:03:35.066Z,38.89
2022-08-16T10:06:01.788Z,39.07
2022-08-16T10:08:28.325Z,39.07
2022-08-16T10:11:13.510Z,40.66
2022-08-16T10:13:41.564Z,40.80
2022-08-16T10:18:41.281Z,40.36
2022-08-16T10:21:23.634Z,41.69
2022-08-16T10:23:53.593Z,41.47
2022-08-16T10:27:11.290Z,40.68
2022-08-16T10:29:11.550Z,42.52
2022-08-16T10:31:44.526Z,40.00
2022-08-16T10:34:32.038Z,39.81
2022-08-16T10:37:01.224Z,39.00
2022-08-16T10:39:40.673Z,41.14
2022-08-16T10:42:09.906Z,42.44
2022-08-16T10:44:36.639Z,42.80
2022-08-16T10:47:03.651Z,40.84
2022-08-16T10:49:30.896Z,41.23
2022-08-16T10:52:01.660Z,41.04
2022-08-16T10:54:59.571Z,40.89
2022-08-16T10:57:32.880Z,41.09
2022-08-16T11:00:01.336Z,41.83
2022-08-16T11:02:59.864Z,40.27
2022-08-16T11:05:17.006Z,38.43
2022-08-16T11:07:52.279Z,39.21
2022-08-16T11:19:12.380Z,41.11
2022-08-16T11:24:40.054Z,43.39
2022-08-16T11:27:35.374Z,41.41
2022-08-16T11:29:57.521Z,42.60
2022-08-16T11:32:31.833Z,41.28
2022-08-16T11:35:10.855Z,40.99
2022-08-16T11:40:32.736Z,40.59
2022-08-16T11:43:01.347Z,41.53
2022-08-16T11:45:28.066Z,39.83
2022-08-16T11:48:00.358Z,40.26
2022-08-16T11:50:27.486Z,41.83
2022-08-16T11:52:53.965Z,43.06
2022-08-16T11:55:23.624Z,42.17
2022-08-16T11:57:56.333Z,43.43
2022-08-16T12:00:50.239Z,41.18
2022-08-16T12:03:14.135Z,41.21
2022-08-16T12:05:43.969Z,40.97
2022-08-16T12:08:12.628Z,42.34
2022-08-16T12:10:40.607Z,43.14
2022-08-16T12:13:10.958Z,43.08
2022-08-16T12:15:37.939Z,43.14
2022-08-16T12:18:06.879Z,43.79
2022-08-16T12:20:37.436Z,41.94
2022-08-16T12:23:05.174Z,42.72
2022-08-16T12:25:33.629Z,42.60
2022-08-16T12:28:02.174Z,41.75
2022-08-16T12:30:38.684Z,42.15
2022-08-16T12:33:07.795Z,42.19
2022-08-16T12:35:37.157Z,42.09
2022-08-16T12:38:08.632Z,40.96
2022-08-16T12:40:55.495Z,40.72
2022-08-16T12:43:24.848Z,40.21
2022-08-16T12:45:55.236Z,41.51
2022-08-16T12:48:49.234Z,40.61
2022-08-16T12:51:22.367Z,42.64
2022-08-16T12:53:52.882Z,41.63
2022-08-16T12:56:21.902Z,41.05
2022-08-16T12:58:53.267Z,41.17
2022-08-16T13:01:27.448Z,40.78
2022-08-16T13:04:20.601Z,40.15
2022-08-16T13:06:44.805Z,40.62
2022-08-16T13:09:23.678Z,40.54
2022-08-16T13:12:19.186Z,41.04
2022-08-16T13:14:47.401Z,40.00
2022-08-16T13:17:21.714Z,39.47
2022-08-16T13:25:17.390Z,40.49
2022-08-16T13:28:03.459Z,39.86
2022-08-16T13:30:37.751Z,40.12
2022-08-16T13:33:12.502Z,42.45
2022-08-16T13:35:43.955Z,42.01
2022-08-16T13:38:24.375Z,41.02
2022-08-16T13:40:53.182Z,40.89
2022-08-16T13:43:23.370Z,40.78
2022-08-16T13:45:50.436Z,39.42
2022-08-16T13:48:21.732Z,38.66
2022-08-16T13:50:53.267Z,38.40
2022-08-16T13:53:24.469Z,38.28
2022-08-16T13:55:58.436Z,37.59
2022-08-16T13:58:34.670Z,37.25
2022-08-16T14:01:03.291Z,37.09
2022-08-16T14:03:29.743Z,37.38
2022-08-16T14:05:56.805Z,37.60
2022-08-16T14:08:27.175Z,38.57
2022-08-16T14:10:54.298Z,37.72
2022-08-16T14:13:21.717Z,37.45
2022-08-16T14:15:48.782Z,37.91
2022-08-16T14:18:20.305Z,36.46
2022-08-16T14:20:48.604Z,36.84
2022-08-16T14:23:21.819Z,36.78
2022-08-16T14:25:53.944Z,36.81
2022-08-16T14:28:23.554Z,36.43
2022-08-16T14:30:52.456Z,37.35
2022-08-16T14:33:19.881Z,37.46
2022-08-16T14:35:50.355Z,36.99
2022-08-16T14:38:19.178Z,36.93
2022-08-16T14:40:55.145Z,36.58
2022-08-16T14:43:22.310Z,36.54
2022-08-16T14:45:50.376Z,37.20
2022-08-16T14:48:25.145Z,36.09
2022-08-16T14:50:53.283Z,36.28
2022-08-16T14:53:20.238Z,36.04
2022-08-16T14:55:48.386Z,35.25
2022-08-16T14:58:19.601Z,34.57
2022-08-16T15:00:47.780Z,35.24
2022-08-16T15:03:21.152Z,35.16
2022-08-16T15:05:48.280Z,34.95
2022-08-16T15:08:17.065Z,34.58
2022-08-16T15:10:45.845Z,34.40
2022-08-16T15:13:12.779Z,33.61
2022-08-16T15:15:41.770Z,33.72
2022-08-16T15:18:11.763Z,34.17
2022-08-16T15:20:39.650Z,33.74
2022-08-16T15:23:09.087Z,33.34
2022-08-16T15:25:43.602Z,33.39
2022-08-16T15:28:30.946Z,33.27
2022-08-16T15:31:03.244Z,32.63
2022-08-16T15:33:32.991Z,32.48
2022-08-16T15:36:00.105Z,32.38
2022-08-16T15:38:55.239Z,32.23
2022-08-16T15:41:38.989Z,32.19
2022-08-16T15:44:21.319Z,32.08
2022-08-16T15:46:55.470Z,32.08
2022-08-16T15:49:25.106Z,31.89
2022-08-16T15:52:01.079Z,31.80
2022-08-16T15:54:33.510Z,31.65
2022-08-16T15:57:11.852Z,31.60
2022-08-16T15:59:48.768Z,31.51
2022-08-16T16:02:29.556Z,31.50
2022-08-16T16:05:04.329Z,31.45
2022-08-16T16:07:33.433Z,31.54
2022-08-16T16:10:02.663Z,31.56
2022-08-16T16:12:51.607Z,31.44
2022-08-16T16:15:18.539Z,31.51
2022-08-16T16:17:51.216Z,31.44
2022-08-16T16:20:27.618Z,31.26
2022-08-16T16:22:59.242Z,31.13
2022-08-16T16:25:26.316Z,30.89
2022-08-16T16:27:55.233Z,30.80
2022-08-16T16:30:33.346Z,30.74
2022-08-16T16:33:04.988Z,30.59
2022-08-16T16:35:34.861Z,30.59
2022-08-16T16:38:01.877Z,30.51
2022-08-16T16:40:38.844Z,30.51
2022-08-16T16:43:14.235Z,30.50
2022-08-16T16:45:43.700Z,30.56
2022-08-16T16:48:12.449Z,30.56
2022-08-16T16:50:44.624Z,30.52
2022-08-16T16:53:17.517Z,30.40
2022-08-16T16:55:52.025Z,30.41
2022-08-16T16:58:43.520Z,30.41
2022-08-16T17:01:10.779Z,30.41
2022-08-16T17:03:38.428Z,30.30
2022-08-16T17:06:09.347Z,30.23
2022-08-16T17:08:41.535Z,30.12
2022-08-16T17:11:09.773Z,30.09
2022-08-16T17:13:36.757Z,30.11
2022-08-16T17:16:04.929Z,30.09
2022-08-16T17:19:14.303Z,30.00
2022-08-16T17:21:19.808Z,30.06
2022-08-16T17:23:59.315Z,30.00
2022-08-16T17:26:29.729Z,29.99
2022-08-16T17:29:10.867Z,30.04
2022-08-16T17:31:43.290Z,29.87
2022-08-16T17:34:29.451Z,29.75
2022-08-16T17:36:58.747Z,29.68
2022-08-16T17:39:29.678Z,29.51
2022-08-16T17:41:57.893Z,29.54
2022-08-16T17:44:24.365Z,29.60
2022-08-16T17:46:52.834Z,29.36
2022-08-16T17:49:20.415Z,29.22
2022-08-16T17:51:47.293Z,29.12
2022-08-16T17:54:29.859Z,29.07
2022-08-16T17:57:00.743Z,29.12
2022-08-16T17:59:28.177Z,29.09
2022-08-16T18:01:55.690Z,28.96
2022-08-16T18:04:48.815Z,28.87
2022-08-16T18:07:10.130Z,28.84
2022-08-16T18:09:37.017Z,28.77
2022-08-16T18:12:44.122Z,28.68
2022-08-16T18:15:02.971Z,28.56
2022-08-16T18:17:29.435Z,28.44
2022-08-16T18:19:55.924Z,28.43
2022-08-16T18:22:30.551Z,28.32
2022-08-16T18:24:57.918Z,28.14
2022-08-16T18:27:25.252Z,28.01
2022-08-16T18:29:53.694Z,27.96
2022-08-16T18:32:21.942Z,27.97
2022-08-16T18:34:51.273Z,27.92
2022-08-16T18:37:17.768Z,28.01
2022-08-16T18:39:44.252Z,27.88
2022-08-16T18:42:13.718Z,27.88
2022-08-16T18:44:42.051Z,27.83
2022-08-16T18:47:09.206Z,27.74
2022-08-16T18:49:36.716Z,27.59
2022-08-16T18:52:04.089Z,27.37
2022-08-16T18:54:31.799Z,27.28
2022-08-16T18:56:58.505Z,27.22
2022-08-16T18:59:27.728Z,27.06
2022-08-16T19:01:59.705Z,27.07
2022-08-16T19:04:55.436Z,26.96
2022-08-16T19:07:17.981Z,26.57
2022-08-16T19:09:44.497Z,26.50
2022-08-16T19:12:11.216Z,26.44
2022-08-16T19:14:42.534Z,26.51
2022-08-16T19:17:11.249Z,26.48
2022-08-16T19:19:37.895Z,26.50
2022-08-16T19:22:05.900Z,26.33
2022-08-16T19:24:32.536Z,26.13
2022-08-16T19:26:59.030Z,25.96
2022-08-16T19:29:28.425Z,25.91
2022-08-16T19:31:54.925Z,25.93
2022-08-16T19:34:21.516Z,25.93
2022-08-16T19:36:48.084Z,25.93
2022-08-16T19:39:15.903Z,25.92
2022-08-16T19:41:50.433Z,25.71
2022-08-16T19:44:21.094Z,25.51
2022-08-16T19:46:49.148Z,25.48
2022-08-16T19:49:16.769Z,25.44
2022-08-16T19:51:44.752Z,25.32
2022-08-16T19:54:11.195Z,25.34
2022-08-16T19:56:37.939Z,25.41
2022-08-16T19:59:21.966Z,25.46
2022-08-16T20:01:53.172Z,25.58
2022-08-16T20:04:21.845Z,25.50
2022-08-16T20:06:48.528Z,25.26
2022-08-16T20:09:16.008Z,25.11
2022-08-16T20:11:47.653Z,25.00
2022-08-16T20:14:24.283Z,24.83
2022-08-16T20:16:51.839Z,24.54
2022-08-16T20:19:18.642Z,24.51
2022-08-16T20:21:45.150Z,24.39
2022-08-16T20:24:32.481Z,24.35
2022-08-16T20:26:58.451Z,24.49
2022-08-16T20:29:25.153Z,24.51
2022-08-16T20:31:51.721Z,24.44
2022-08-16T20:34:18.441Z,24.42
2022-08-16T20:36:44.984Z,24.36
2022-08-16T20:39:14.928Z,24.28
2022-08-16T20:41:42.725Z,24.14
2022-08-16T20:44:10.459Z,23.99
2022-08-16T20:46:38.997Z,24.12
2022-08-16T20:49:08.981Z,23.82
2022-08-16T20:51:47.055Z,23.67
2022-08-16T20:54:19.333Z,23.58
2022-08-16T20:56:45.883Z,23.50
2022-08-16T20:59:12.354Z,23.44
2022-08-16T21:01:46.861Z,23.46
2022-08-16T21:04:18.812Z,23.69
2022-08-16T21:06:53.185Z,23.52
2022-08-16T21:09:32.675Z,23.34
2022-08-16T21:12:01.818Z,23.22
2022-08-16T21:14:32.422Z,23.37
2022-08-16T21:16:58.876Z,23.42
2022-08-16T21:19:26.841Z,23.34
2022-08-16T21:21:53.621Z,23.40
2022-08-16T21:24:20.122Z,23.34
2022-08-16T21:26:53.072Z,23.17
2022-08-16T21:29:22.420Z,23.17
2022-08-16T21:31:51.383Z,23.24
2022-08-16T21:34:17.821Z,23.07
2022-08-16T21:36:44.371Z,23.15
2022-08-16T21:39:11.066Z,23.20
2022-08-16T21:41:38.473Z,23.11
2022-08-16T21:44:05.878Z,23.01
2022-08-16T21:46:33.848Z,22.91
2022-08-16T21:49:00.353Z,22.87
2022-08-16T21:51:26.807Z,23.02
2022-08-16T21:53:53.346Z,23.04
2022-08-16T21:56:19.866Z,23.08
2022-08-16T21:58:46.722Z,23.05
2022-08-16T22:01:22.722Z,23.01
2022-08-16T22:03:49.888Z,23.06
2022-08-16T22:06:37.650Z,23.05
2022-08-16T22:09:06.323Z,22.93
2022-08-16T22:11:33.280Z,22.86
2022-08-16T22:14:00.456Z,22.97
2022-08-16T22:16:33.587Z,22.91
2022-08-16T22:19:01.249Z,22.96
2022-08-16T22:21:28.087Z,22.84
2022-08-16T22:23:58.089Z,22.88
2022-08-16T22:26:29.912Z,23.23
2022-08-16T22:28:58.345Z,23.39
2022-08-16T22:31:25.343Z,23.35
2022-08-16T22:33:51.842Z,23.46
2022-08-16T22:36:18.396Z,23.36
2022-08-16T22:38:53.918Z,23.36
2022-08-16T22:41:23.749Z,23.34
2022-08-16T22:43:50.251Z,23.12
2022-08-16T22:46:16.774Z,23.11
2022-08-16T22:48:43.310Z,23.16
2022-08-16T22:51:10.118Z,23.19
2022-08-16T22:53:37.495Z,23.05
2022-08-16T22:56:04.742Z,22.91
2022-08-16T22:58:36.233Z,22.85
2022-08-16T23:01:05.863Z,22.75
2022-08-16T23:03:32.900Z,22.73
2022-08-16T23:06:02.457Z,22.74
2022-08-16T23:08:38.538Z,22.51
2022-08-16T23:11:07.735Z,22.45
2022-08-16T23:13:34.306Z,22.47
2022-08-16T23:16:10.709Z,22.53
2022-08-16T23:18:39.072Z,22.58
2022-08-16T23:21:09.542Z,22.74
2022-08-16T23:23:37.074Z,22.69
2022-08-16T23:26:44.873Z,22.74
2022-08-16T23:28:50.922Z,22.56
2022-08-16T23:31:17.623Z,22.36
2022-08-16T23:33:44.793Z,22.26
2022-08-16T23:36:11.966Z,22.19
2022-08-16T23:38:39.682Z,22.25
2022-08-16T23:41:11.448Z,22.33
2022-08-16T23:43:41.656Z,22.40
2022-08-16T23:46:11.732Z,22.52
2022-08-16T23:49:57.199Z,22.52
2022-08-16T23:51:24.643Z,22.67
2022-08-16T23:53:51.183Z,22.79
2022-08-16T23:56:20.336Z,22.82
2022-08-16T23:58:54.398Z,22.83
